Alford, United Kingdom
Current Conditions -  °F | °C
As of 8:20 AM on Monday 22 Dec 2014 (Local Time) from EGPD Reporting Station
Few Clouds Few Clouds  
Wind Chill: 45°   Ceiling: Unl
Heat Index: 45°   Visibility: 6mi
Dew Point: 36°   Wind: 3mph
Humidity: 71%   Direction: NA
Pressure: 29.47"   Gusts: NA
Location:  57.23°N, 2.7°W
Report Text: EGPD 220820Z VRB03KT 9999 FEW046 07/02 Q0998 NOSIG
Loading
Personal Weather Stations






























Interactive Weather Map New forecast layout! Learn more

10-Day Weather Forecast

Advertisements
Track Severe Weather on mobile